McAllen, TX (78503)

6:29 PM CST on January 22, 2017 (GMT -0600)
McAllen Miller International | | Change Station

Elev 105 ft 26.18 °N, 98.24 °W | Updated 36 minutes ago

Clear
Clear
77 °F
Feels Like 77 °F
N
14
Wind Variable Wind from NNW
Gusts 23 mph

Today
High -- | Low -- °F
--% Chance of Precip.
Yesterday
High -- | Low -- °F
Precip. -- in
Pressure 29.89 in
Visibility 10.0 miles
Clouds Clear
Dew Point 20 °F
Humidity 12%
Rainfall 0.00 in
Snow Depth Not available.
7:20 AM 6:08 PM
Waning Crescent, 22% visible
METAR KMFE 222353Z 33012G20KT 10SM CLR 25/M07 A2990 RMK AO2 SLP122 T02501067 10294 20250 53019
Pressure 29.89 in
Visibility 10.0 miles
Clouds Clear
Dew Point 20 °F
Humidity 12%
Rainfall 0.00 in
Snow Depth Not available.
7:20 AM 6:08 PM
Waning Crescent, 22% visible
METAR KMFE 222353Z 33012G20KT 10SM CLR 25/M07 A2990 RMK AO2 SLP122 T02501067 10294 20250 53019

Get Your Daily Forecast Email!

Thanks for signing up!

Be on the lookout for a verification email in your inbox.

You'll start receiving the daily forecast at 8 AM.

×

10-Day Weather Forecast

Almanac

Astronomy

Jan. 22, 2017 Rise Set
Actual Time
Civil Twilight
Nautical Twilight
Astronomical Twilight
Moon
Length of Visible Light
Length of Day
Tomorrow will be .
, % of the Moon is Illuminated

Today's Extremes

State Highs State Lows

Community

WunderPhotos

Upload Photos

1,962,540 photos uploaded!

WunderBlog® & News

Nearby

Air Quality

  Air Quality AQ Index Pollutant
Not available.

Snow Depth

Station Depth Elevation

Earthquake Activity

City Distance Mag. Time & Date
Minimum magnitude displayed is 2.5.

Coastal Water Temperatures

Place Temperature

Stations

Nearby Weather Stations

Station Location Temp. Windchill Dew Point Humidity Wind Precip. Elev Updated Type
                   

Watches & Warnings

High Wind Advisory
Issued: 6:15 PM CST Jan. 22, 2017 – National Weather Service

... Wind Advisory has expired...

Although the Wind Advisory has expired... winds are expected to
remain breezy this evening before becoming light later tonight
and through the early morning hours of Monday.

Another Wind Advisory may be needed for portions of deep south
Texas and the Rio Grande Valley on Tuesday due to strong winds
from the south.


Tomaselli


Small Craft for Winds Advisory
Issued: 4:04 PM CST Jan. 22, 2017 – National Weather Service

... Small Craft Advisory for winds in effect until 7 PM CST this
evening...
... Gale Warning is cancelled...

The National Weather Service in Brownsville has issued a Small
Craft Advisory for winds, which is in effect until 7 PM CST this
evening. The Gale Warning has been cancelled.

* Winds... northwest at 20 to 25 knots.

* Bay conditions... very Rough Bay waters.

Precautionary/preparedness actions...

A Small Craft Advisory for wind means that wind speeds of 20 to
33 knots are expected. Inexperienced mariners... especially those
operating smaller vessels should avoid navigating in these
conditions.